Time;durP1;ratioP1;P1;durP2;ratioP2;P2;SDS_P1;SDS_P2;PMS_P1;PMS_P2;Temp;Humidity;BMP_temperature;BMP_pressure;BME280_temperature;BME280_humidity;BME280_pressure;Samples;Min_cycle;Max_cycle;Signal;HPM_P1;HPM_P2
2022/06/06 00:00:43;;;;;;;47.80;19.25;;;;;;;21.04;74.46;101453.31;5030915;28;20124;-70
2022/06/06 00:03:09;;;;;;;46.05;19.23;;;;;;;20.79;73.07;101446.41;5030273;28;20036;-69
2022/06/06 00:05:36;;;;;;;47.47;19.50;;;;;;;21.62;67.26;101441.81;5032890;28;20037;-70
2022/06/06 00:08:03;;;;;;;48.33;21.17;;;;;;;20.33;73.52;101448.31;5034772;28;20037;-69
2022/06/06 00:10:28;;;;;;;48.58;20.17;;;;;;;20.66;73.63;101442.50;5034162;28;20185;-70
2022/06/06 00:12:54;;;;;;;47.42;18.23;;;;;;;21.46;68.95;101432.81;5033863;28;20132;-69
2022/06/06 00:15:19;;;;;;;43.80;17.60;;;;;;;20.72;73.34;101436.97;5033547;28;20370;-70
2022/06/06 00:17:45;;;;;;;48.90;19.15;;;;;;;19.93;78.23;101434.88;5035132;28;20030;-72
2022/06/06 00:20:10;;;;;;;44.97;18.48;;;;;;;20.83;74.48;101428.56;5034560;28;20472;-70
2022/06/06 00:22:36;;;;;;;46.80;18.10;;;;;;;20.94;68.82;101425.44;5035240;28;20037;-70
2022/06/06 00:25:01;;;;;;;45.25;18.27;;;;;;;20.54;69.48;101433.28;5035089;28;20083;-70
2022/06/06 00:27:27;;;;;;;46.55;16.95;;;;;;;20.63;72.27;101430.22;5066265;28;20139;-69
2022/06/06 00:29:53;;;;;;;45.58;18.60;;;;;;;21.55;67.73;101427.09;5033288;28;20116;-70
2022/06/06 00:35:06;;;;;;;50.17;19.35;;;;;;;21.96;61.69;101418.09;5034405;28;20080;-70
2022/06/06 00:37:34;;;;;;;46.33;18.05;;;;;;;22.60;59.90;101413.16;5034533;28;20071;-70
2022/06/06 00:40:03;;;;;;;47.20;17.38;;;;;;;21.56;62.42;101420.00;5035149;28;20112;-70
2022/06/06 00:42:35;;;;;;;40.72;16.77;;;;;;;21.63;66.70;101416.13;5034079;28;20036;-70
2022/06/06 00:45:21;;;;;;;40.08;15.90;;;;;;;21.92;62.14;101417.38;5034661;28;20587;-70
2022/06/06 00:47:53;;;;;;;34.40;15.00;;;;;;;21.13;66.12;101415.69;5034611;28;20104;-70
2022/06/06 00:50:30;;;;;;;31.50;13.52;;;;;;;20.80;68.25;101416.25;5033952;28;20049;-70
2022/06/06 00:52:56;;;;;;;32.28;14.18;;;;;;;20.75;64.47;101407.63;5033391;28;20057;-71
2022/06/06 00:55:27;;;;;;;24.15;12.60;;;;;;;22.04;60.73;101407.94;5033913;28;20101;-70
2022/06/06 00:57:58;;;;;;;27.70;13.27;;;;;;;22.10;59.39;101394.31;5034507;28;20091;-70
2022/06/06 01:00:25;;;;;;;27.63;13.50;;;;;;;22.34;59.82;101410.03;5034432;28;20033;-70
2022/06/06 01:02:56;;;;;;;30.35;13.05;;;;;;;21.76;61.60;101401.31;5065784;28;20049;-70
2022/06/06 01:05:24;;;;;;;28.98;12.88;;;;;;;21.10;62.17;101402.56;5033111;28;20036;-70
2022/06/06 01:07:49;;;;;;;24.10;11.98;;;;;;;20.73;67.71;101403.31;5034338;28;20108;-71
2022/06/06 01:10:15;;;;;;;30.80;13.23;;;;;;;20.80;66.92;101400.31;5032432;28;20477;-71
2022/06/06 01:12:43;;;;;;;29.58;13.50;;;;;;;20.94;68.14;101406.84;5034379;28;20052;-70
2022/06/06 01:15:13;;;;;;;30.02;13.07;;;;;;;20.51;68.86;101394.44;5034096;28;20025;-70
2022/06/06 01:17:44;;;;;;;32.22;13.75;;;;;;;21.35;65.87;101390.78;5032805;28;20492;-70
2022/06/06 01:20:38;;;;;;;31.90;15.07;;;;;;;21.96;60.02;101383.50;5034272;28;20031;-70
2022/06/06 01:23:16;;;;;;;35.50;14.65;;;;;;;21.50;62.23;101390.06;5034438;28;20489;-71
2022/06/06 01:25:53;;;;;;;37.35;14.25;;;;;;;21.05;61.61;101387.72;5033642;28;20041;-70
2022/06/06 01:28:48;;;;;;;37.22;14.82;;;;;;;21.01;63.56;101382.53;5033985;28;20073;-71
2022/06/06 01:31:18;;;;;;;37.17;14.52;;;;;;;20.97;65.54;101393.41;5033714;28;20515;-70
2022/06/06 01:33:54;;;;;;;39.63;15.65;;;;;;;20.67;69.92;101383.16;5065978;28;20021;-70
2022/06/06 01:36:21;;;;;;;31.83;13.80;;;;;;;21.47;62.12;101395.53;5033928;28;20103;-70
2022/06/06 01:38:48;;;;;;;36.03;14.70;;;;;;;21.19;63.66;101386.16;5032833;28;20552;-70
2022/06/06 01:41:30;;;;;;;31.30;14.70;;;;;;;21.79;62.45;101390.50;5032375;28;20025;-70
2022/06/06 01:44:25;;;;;;;35.65;15.25;;;;;;;22.11;59.17;101388.06;5033656;28;20091;-70
2022/06/06 01:46:51;;;;;;;34.78;15.35;;;;;;;21.95;60.29;101384.41;5033430;28;20021;-70
2022/06/06 01:49:18;;;;;;;39.28;16.50;;;;;;;20.51;68.07;101381.19;5065704;28;20059;-70
2022/06/06 01:51:56;;;;;;;40.72;16.73;;;;;;;21.01;67.81;101377.22;5032708;28;20084;-70
2022/06/06 01:54:22;;;;;;;33.35;14.63;;;;;;;22.15;58.96;101381.63;5033769;28;20017;-70
2022/06/06 01:56:47;;;;;;;36.20;16.17;;;;;;;21.44;62.88;101373.53;5032046;28;20029;-71
2022/06/06 01:59:13;;;;;;;37.42;15.50;;;;;;;21.74;62.16;101371.22;5032164;28;20029;-71
2022/06/06 02:01:39;;;;;;;33.65;15.25;;;;;;;21.02;60.97;101368.34;5033229;28;20022;-69
2022/06/06 02:04:04;;;;;;;39.83;13.88;;;;;;;20.79;65.22;101377.34;5065180;28;20029;-71
2022/06/06 02:06:30;;;;;;;36.03;14.20;;;;;;;21.10;62.16;101365.34;5031090;28;20031;-70
2022/06/06 02:08:55;;;;;;;36.80;15.10;;;;;;;21.21;62.06;101366.63;5033199;28;20100;-70
2022/06/06 02:11:21;;;;;;;35.10;14.05;;;;;;;21.41;60.18;101366.56;5031748;28;20049;-70
2022/06/06 02:13:47;;;;;;;33.28;13.85;;;;;;;22.05;60.63;101367.06;5032437;28;20440;-70
2022/06/06 02:16:13;;;;;;;33.55;13.95;;;;;;;22.45;58.11;101362.41;5033023;28;20470;-70
2022/06/06 02:18:38;;;;;;;37.42;14.45;;;;;;;20.90;62.33;101368.03;5033029;28;20028;-71
2022/06/06 02:21:04;;;;;;;38.50;14.80;;;;;;;21.50;60.29;101368.78;5032210;28;20100;-70
2022/06/06 02:23:30;;;;;;;35.35;15.07;;;;;;;21.14;62.51;101377.56;5032948;28;20076;-70
2022/06/06 02:25:57;;;;;;;33.28;13.57;;;;;;;22.36;57.46;101374.38;5031583;28;20028;-70
2022/06/06 02:28:23;;;;;;;34.60;14.18;;;;;;;21.79;59.12;101374.53;5031660;28;20084;-70
2022/06/06 02:30:48;;;;;;;35.92;14.57;;;;;;;22.80;55.50;101381.00;5031175;28;20056;-70
2022/06/06 02:33:14;;;;;;;30.50;13.50;;;;;;;22.13;57.10;101380.88;5032634;28;20021;-70
2022/06/06 02:35:41;;;;;;;39.33;13.90;;;;;;;21.33;60.17;101382.00;5032038;28;20052;-71
2022/06/06 02:38:09;;;;;;;34.72;14.30;;;;;;;21.47;60.89;101374.25;5032585;28;20104;-71
2022/06/06 02:40:34;;;;;;;31.95;14.68;;;;;;;21.18;65.12;101379.13;5031281;28;20036;-70
2022/06/06 02:42:59;;;;;;;32.80;13.77;;;;;;;21.77;58.56;101373.72;5031680;28;20029;-71
2022/06/06 02:45:25;;;;;;;34.50;13.57;;;;;;;21.88;57.40;101362.56;5031252;28;20397;-71
2022/06/06 02:47:57;;;;;;;37.35;14.95;;;;;;;21.89;59.38;101368.78;5063407;28;20036;-71
2022/06/06 02:50:25;;;;;;;36.58;14.38;;;;;;;21.73;58.04;101361.53;5032726;28;20082;-70
2022/06/06 02:52:52;;;;;;;32.45;13.82;;;;;;;22.26;56.44;101351.81;5031132;28;20032;-71
2022/06/06 02:55:18;;;;;;;36.15;13.77;;;;;;;21.94;57.77;101351.63;5063584;28;20025;-71
2022/06/06 02:57:46;;;;;;;39.35;14.30;;;;;;;21.56;60.84;101350.84;5030996;28;20029;-71
2022/06/06 03:00:15;;;;;;;33.38;14.13;;;;;;;21.56;59.30;101357.03;5032089;28;20056;-71
2022/06/06 03:02:41;;;;;;;32.05;14.45;;;;;;;22.45;57.23;101356.22;5031262;28;20026;-71
2022/06/06 03:05:08;;;;;;;36.15;14.23;;;;;;;21.09;61.62;101368.94;5030892;28;20548;-71
2022/06/06 03:08:05;;;;;;;36.20;15.02;;;;;;;20.89;64.39;101361.00;5032314;28;20389;-71
2022/06/06 03:10:54;;;;;;;37.67;15.25;;;;;;;21.16;63.40;101359.72;5031484;28;20022;-72
2022/06/06 03:13:59;;;;;;;37.03;14.57;;;;;;;21.25;65.22;101362.91;5064276;28;20029;-70
2022/06/06 03:23:14;;;;;;;36.53;15.20;;;;;;;22.09;58.77;101349.13;5032236;28;20547;-71
2022/06/06 03:26:11;;;;;;;34.83;14.50;;;;;;;22.40;55.30;101348.47;5031807;28;20029;-71
2022/06/06 03:28:57;;;;;;;36.22;14.57;;;;;;;21.35;62.23;101354.41;5030690;28;20017;-70
2022/06/06 03:31:51;;;;;;;34.55;14.60;;;;;;;21.88;59.36;101349.28;5031120;28;20461;-70
2022/06/06 03:34:25;;;;;;;38.67;14.75;;;;;;;21.83;58.25;101357.50;5031962;28;20021;-72
2022/06/06 03:37:24;;;;;;;36.97;15.18;;;;;;;22.75;56.39;101352.88;5032101;28;20029;-71
2022/06/06 03:40:27;;;;;;;35.20;15.68;;;;;;;22.36;55.99;101354.88;5030479;28;20040;-71
2022/06/06 03:43:24;;;;;;;39.83;16.40;;;;;;;22.82;55.40;101357.81;5034549;28;20401;-71
2022/06/06 03:46:04;;;;;;;37.67;16.08;;;;;;;23.00;53.37;101342.63;5033996;28;20489;-71
2022/06/06 03:48:51;;;;;;;47.63;16.30;;;;;;;23.17;54.15;101354.22;5036028;28;20030;-71
2022/06/06 03:51:37;;;;;;;37.13;16.10;;;;;;;21.96;58.92;101359.53;5033669;28;20509;-71
2022/06/06 03:54:14;;;;;;;44.13;18.05;;;;;;;22.47;57.76;101354.34;5035941;28;20025;-71
2022/06/06 03:56:46;;;;;;;41.05;15.25;;;;;;;22.91;54.89;101358.25;5035802;28;20025;-70
2022/06/06 03:59:13;;;;;;;39.55;16.33;;;;;;;22.31;58.22;101354.22;5034983;28;20029;-71
2022/06/06 04:01:41;;;;;;;37.58;15.02;;;;;;;21.35;60.95;101359.75;5034218;28;20074;-71
2022/06/06 04:04:07;;;;;;;34.05;12.88;;;;;;;21.79;59.71;101361.25;5035585;28;20485;-71
2022/06/06 04:06:33;;;;;;;30.65;12.95;;;;;;;22.12;58.36;101357.84;5033587;28;20072;-71
2022/06/06 04:08:59;;;;;;;24.75;11.25;;;;;;;21.98;55.96;101368.28;5034258;28;20474;-71
2022/06/06 04:12:04;;;;;;;33.13;11.35;;;;;;;22.75;55.63;101364.41;5067151;28;20029;-71
2022/06/06 04:14:38;;;;;;;26.58;10.95;;;;;;;21.77;58.75;101363.09;5033638;28;20029;-71
2022/06/06 04:17:30;;;;;;;23.50;10.60;;;;;;;22.13;57.04;101362.22;5034425;28;20087;-70
2022/06/06 04:20:00;;;;;;;18.50;9.77;;;;;;;21.86;59.43;101360.00;5042413;28;20084;-70
2022/06/06 04:23:00;;;;;;;18.60;8.35;;;;;;;21.53;59.76;101362.50;5035431;28;20031;-70
2022/06/06 04:25:44;;;;;;;12.48;7.32;;;;;;;21.77;59.95;101363.09;5065507;28;20544;-71
2022/06/06 04:28:31;;;;;;;19.95;8.00;;;;;;;21.96;57.69;101364.88;5034458;28;20068;-72
2022/06/06 04:31:21;;;;;;;14.90;7.13;;;;;;;21.57;59.41;101368.50;5035008;28;20122;-71
2022/06/06 04:34:08;;;;;;;10.30;5.90;;;;;;;20.83;59.48;101376.28;5034290;28;20536;-71
2022/06/06 04:36:49;;;;;;;13.13;6.68;;;;;;;20.94;59.00;101364.31;5035186;28;20096;-70
2022/06/06 04:39:24;;;;;;;12.38;6.53;;;;;;;21.52;57.37;101371.38;5033688;28;20033;-70
2022/06/06 04:41:59;;;;;;;14.27;5.65;;;;;;;22.02;56.69;101369.88;5034196;28;20444;-70
2022/06/06 04:44:44;;;;;;;12.95;5.80;;;;;;;21.23;57.81;101368.28;5033606;28;20076;-69
2022/06/06 04:47:20;;;;;;;17.35;6.30;;;;;;;22.67;53.27;101378.13;5035027;28;20033;-71
2022/06/06 04:49:47;;;;;;;18.15;7.38;;;;;;;20.73;58.34;101374.97;5034862;28;20031;-70
2022/06/06 04:52:13;;;;;;;9.80;5.15;;;;;;;20.85;57.78;101384.16;5033685;28;20549;-71
2022/06/06 04:54:41;;;;;;;11.35;4.22;;;;;;;21.85;53.82;101379.53;5034066;28;20017;-70
2022/06/06 04:57:09;;;;;;;9.02;4.00;;;;;;;22.11;52.24;101374.75;5034596;28;20081;-71
2022/06/06 04:59:35;;;;;;;7.82;3.17;;;;;;;22.59;52.29;101383.00;5033450;28;20389;-69
2022/06/06 05:02:05;;;;;;;8.43;3.28;;;;;;;22.85;49.12;101386.97;5065766;28;20032;-70
2022/06/06 05:04:30;;;;;;;10.32;2.90;;;;;;;22.15;50.62;101383.44;5034618;28;20497;-70
2022/06/06 05:07:20;;;;;;;6.53;2.63;;;;;;;23.17;49.60;101381.72;5033269;28;20185;-70
2022/06/06 05:09:48;;;;;;;5.18;2.25;;;;;;;22.32;49.43;101372.78;5033926;28;20184;-70
2022/06/06 05:12:32;;;;;;;5.97;2.15;;;;;;;21.79;51.27;101379.84;5034305;28;20049;-69
2022/06/06 05:15:15;;;;;;;4.15;2.33;;;;;;;21.85;51.63;101378.69;5034517;28;20025;-70
2022/06/06 05:17:59;;;;;;;5.70;2.30;;;;;;;21.90;51.22;101373.13;5033640;28;20563;-69
2022/06/06 05:20:40;;;;;;;7.88;2.92;;;;;;;21.66;52.51;101362.75;5033044;28;20029;-70
2022/06/06 05:23:25;;;;;;;8.77;2.90;;;;;;;22.25;50.44;101375.84;5065572;28;20029;-70
2022/06/06 05:25:57;;;;;;;5.85;2.25;;;;;;;22.40;50.00;101372.44;5034166;28;20032;-69
2022/06/06 05:28:32;;;;;;;4.15;2.10;;;;;;;21.63;51.24;101365.56;5066199;28;20028;-69
2022/06/06 05:31:09;;;;;;;9.02;3.22;;;;;;;21.96;50.74;101368.38;5065231;28;20460;-69
2022/06/06 05:33:41;;;;;;;7.82;3.38;;;;;;;21.32;51.26;101365.22;5034080;28;20063;-69
2022/06/06 05:36:10;;;;;;;3.80;2.22;;;;;;;20.61;53.60;101372.81;5032875;28;20495;-70
2022/06/06 05:38:45;;;;;;;5.72;2.42;;;;;;;21.51;51.28;101373.19;5065236;28;20124;-70
2022/06/06 05:41:20;;;;;;;5.85;2.25;;;;;;;21.61;50.95;101370.09;5066038;28;20033;-70
2022/06/06 05:43:56;;;;;;;4.97;1.77;;;;;;;22.71;48.25;101368.19;5033345;28;20474;-69
2022/06/06 05:46:53;;;;;;;2.97;1.98;;;;;;;22.80;47.05;101373.00;5034005;28;20091;-69
2022/06/06 05:49:31;;;;;;;5.65;1.80;;;;;;;22.56;48.69;101374.28;5031977;28;20052;-70
2022/06/06 05:52:34;;;;;;;4.55;2.67;;;;;;;22.93;48.51;101367.03;5032975;28;20047;-70
2022/06/06 05:55:02;;;;;;;6.15;3.00;;;;;;;21.50;53.05;101376.75;5033768;28;20033;-70
2022/06/06 05:57:31;;;;;;;9.75;3.17;;;;;;;21.70;51.69;101369.66;5033937;28;20025;-70
2022/06/06 05:59:59;;;;;;;11.07;3.25;;;;;;;21.15;53.25;101378.41;5065031;28;20029;-70
2022/06/06 06:02:47;;;;;;;7.05;3.38;;;;;;;22.14;51.76;101379.06;5065591;28;20033;-70
2022/06/06 06:05:41;;;;;;;9.00;3.80;;;;;;;20.97;54.32;101374.81;5031237;28;20032;-69
2022/06/06 06:08:19;;;;;;;16.30;5.13;;;;;;;20.98;55.10;101371.22;5031782;28;20128;-71
2022/06/06 06:11:17;;;;;;;8.70;4.10;;;;;;;20.92;56.15;101368.81;5033493;28;20552;-71
2022/06/06 06:14:10;;;;;;;6.18;3.97;;;;;;;22.32;52.17;101377.25;5031476;28;20046;-71
2022/06/06 06:16:42;;;;;;;7.43;4.18;;;;;;;22.25;50.78;101386.50;5031890;28;20034;-70
2022/06/06 06:19:11;;;;;;;7.97;4.13;;;;;;;22.14;50.45;101381.72;5064341;28;20045;-70
2022/06/06 06:21:42;;;;;;;5.75;3.70;;;;;;;22.19;51.08;101395.66;5033215;28;20071;-70
2022/06/06 06:24:10;;;;;;;6.88;3.72;;;;;;;22.67;51.40;101390.59;5033181;28;20048;-70
2022/06/06 06:26:38;;;;;;;6.72;3.63;;;;;;;21.82;51.60;101390.34;5031005;28;20418;-70
2022/06/06 06:29:06;;;;;;;9.60;4.00;;;;;;;21.98;51.94;101390.47;5031659;28;20036;-71
2022/06/06 06:31:31;;;;;;;9.30;3.80;;;;;;;22.82;49.04;101386.25;5032914;28;20052;-71
2022/06/06 06:34:28;;;;;;;7.95;3.55;;;;;;;22.63;49.06;101397.88;5064120;28;20116;-70
2022/06/06 06:37:15;;;;;;;6.20;3.50;;;;;;;22.20;48.33;101402.69;5031691;28;20025;-69
2022/06/06 06:40:07;;;;;;;9.35;3.50;;;;;;;22.81;48.27;101390.72;5032683;28;20025;-71
2022/06/06 06:42:39;;;;;;;9.52;3.22;;;;;;;23.34;46.76;101395.94;5033008;28;20029;-71
2022/06/06 06:45:20;;;;;;;5.57;2.92;;;;;;;22.26;48.89;101404.22;5032962;28;20052;-70
2022/06/06 06:47:51;;;;;;;6.55;2.95;;;;;;;23.77;46.38;101390.00;5031836;28;20029;-70
2022/06/06 06:50:23;;;;;;;6.70;2.67;;;;;;;23.86;43.52;101401.03;5032929;28;20025;-69
2022/06/06 06:53:12;;;;;;;6.00;2.10;;;;;;;26.55;38.63;101392.34;5032760;28;20025;-70
2022/06/06 06:55:44;;;;;;;4.97;2.83;;;;;;;26.17;39.11;101401.19;5031904;28;20028;-70
2022/06/06 06:58:52;;;;;;;3.97;2.40;;;;;;;25.61;40.79;101411.09;5032931;28;20033;-70
2022/06/06 07:08:32;;;;;;;9.68;2.92;;;;;;;26.15;39.38;101396.91;5031759;28;20021;-70
2022/06/06 07:10:47;;;;;;;2.65;1.90;;;;;;;26.30;38.49;101405.72;5032591;28;20420;-71
2022/06/06 07:14:00;;;;;;;4.38;2.38;;;;;;;26.05;39.20;101397.50;5031090;28;20393;-69
2022/06/06 07:16:28;;;;;;;5.68;2.30;;;;;;;24.39;42.04;101419.41;5029500;28;20040;-71
2022/06/06 07:19:19;;;;;;;6.40;2.40;;;;;;;23.22;43.38;101413.50;5030972;28;20066;-70
2022/06/06 07:21:46;;;;;;;6.72;2.30;;;;;;;23.39;44.43;101417.91;5032198;28;20429;-71
2022/06/06 07:24:16;;;;;;;8.07;2.45;;;;;;;24.98;41.98;101410.56;5031522;28;20022;-70
2022/06/06 07:26:44;;;;;;;6.82;3.03;;;;;;;22.41;47.69;101411.44;5030952;28;20017;-72
2022/06/06 07:29:12;;;;;;;8.35;2.72;;;;;;;24.16;44.43;101418.91;5031398;28;20504;-70
2022/06/06 07:32:13;;;;;;;5.65;2.20;;;;;;;23.45;43.83;101406.91;5031972;28;20047;-70
2022/06/06 07:34:56;;;;;;;6.05;2.25;;;;;;;26.09;38.81;101414.25;5032113;28;20074;-70
2022/06/06 07:37:25;;;;;;;4.30;1.88;;;;;;;26.46;37.93;101417.13;5063237;28;20116;-70
2022/06/06 07:40:24;;;;;;;4.50;1.70;;;;;;;26.97;36.91;101420.81;5064115;28;20033;-70
2022/06/06 07:43:08;;;;;;;3.58;1.40;;;;;;;27.41;36.25;101409.63;5031943;28;20049;-70
2022/06/06 07:45:44;;;;;;;6.07;1.50;;;;;;;25.74;37.60;101415.53;5064013;28;20079;-70
2022/06/06 07:48:30;;;;;;;7.25;1.40;;;;;;;24.79;40.28;101430.38;5031945;28;20489;-70
2022/06/06 07:51:28;;;;;;;6.40;2.47;;;;;;;25.14;40.87;101416.69;5031319;28;20026;-70
2022/06/06 07:54:02;;;;;;;9.45;2.33;;;;;;;26.31;38.73;101415.44;5031885;28;20112;-70
2022/06/06 07:56:40;;;;;;;9.77;1.80;;;;;;;27.42;36.09;101408.66;5063842;28;20029;-71
2022/06/06 07:59:17;;;;;;;6.57;2.20;;;;;;;25.43;39.44;101414.00;5063073;28;20485;-70
2022/06/06 08:02:03;;;;;;;3.83;1.60;;;;;;;25.05;40.31;101422.59;5032002;28;20371;-70
2022/06/06 08:05:02;;;;;;;3.20;1.90;;;;;;;24.53;42.17;101422.09;5028889;28;20111;-70
2022/06/06 08:08:09;;;;;;;9.32;2.60;;;;;;;25.48;40.34;101403.84;5063945;28;20120;-70
2022/06/06 08:10:39;;;;;;;3.03;1.70;;;;;;;25.72;39.39;101411.28;5030011;28;20057;-70
2022/06/06 08:13:40;;;;;;;5.30;1.83;;;;;;;23.52;44.26;101418.94;5031069;28;20124;-70
2022/06/06 08:16:24;;;;;;;4.78;1.70;;;;;;;23.08;44.03;101419.53;5030253;28;20400;-70
2022/06/06 08:19:08;;;;;;;4.90;1.98;;;;;;;24.86;41.48;101418.34;5029608;28;20091;-70
2022/06/06 08:21:49;;;;;;;5.68;1.90;;;;;;;26.71;38.13;101410.94;5031720;28;20033;-71
2022/06/06 08:24:39;;;;;;;4.82;1.90;;;;;;;23.48;43.04;101417.41;5030314;28;20567;-70
2022/06/06 08:27:15;;;;;;;5.75;2.05;;;;;;;23.20;43.49;101418.91;5031596;28;20025;-70
2022/06/06 08:29:43;;;;;;;2.40;2.15;;;;;;;23.19;43.62;101411.84;5035506;28;20030;-69
2022/06/06 08:32:09;;;;;;;5.10;1.92;;;;;;;23.25;43.26;101420.47;5067333;28;20028;-70
2022/06/06 08:34:35;;;;;;;3.58;2.25;;;;;;;24.56;42.41;101421.06;5066591;28;20045;-70
2022/06/06 08:37:24;;;;;;;2.35;1.90;;;;;;;23.97;42.82;101423.59;5035045;28;20064;-70
2022/06/06 08:40:31;;;;;;;5.25;2.10;;;;;;;25.43;40.13;101410.47;5066376;28;20037;-71
2022/06/06 08:43:10;;;;;;;2.65;1.90;;;;;;;27.44;36.71;101395.13;5032915;28;20145;-70
2022/06/06 08:45:47;;;;;;;7.57;1.65;;;;;;;27.59;35.54;101406.56;5032852;28;20033;-71
2022/06/06 08:48:17;;;;;;;3.22;1.75;;;;;;;27.76;34.77;101405.31;5032320;28;20470;-70
2022/06/06 08:51:04;;;;;;;1.98;1.20;;;;;;;26.32;36.88;101395.75;5066934;28;20033;-70
2022/06/06 08:53:58;;;;;;;5.65;1.60;;;;;;;25.39;37.54;101401.78;5034146;28;20032;-70
2022/06/06 08:56:41;;;;;;;3.03;1.17;;;;;;;26.06;36.66;101387.63;5034893;28;20033;-70
2022/06/06 08:59:47;;;;;;;4.70;1.73;;;;;;;29.06;33.01;101382.03;5034777;28;20025;-70
2022/06/06 09:02:41;;;;;;;4.88;1.52;;;;;;;26.81;35.04;101384.34;5034150;28;20029;-71
2022/06/06 09:05:35;;;;;;;3.45;1.70;;;;;;;24.90;38.23;101393.16;5066643;28;20045;-70
2022/06/06 09:08:29;;;;;;;3.65;1.38;;;;;;;28.00;35.31;101389.25;5034054;28;20025;-70
2022/06/06 09:11:19;;;;;;;3.13;1.50;;;;;;;28.00;34.33;101393.75;5034612;28;20109;-70
2022/06/06 09:13:44;;;;;;;3.53;1.40;;;;;;;26.90;34.64;101383.72;5034555;28;20533;-70
2022/06/06 09:16:19;;;;;;;2.90;1.23;;;;;;;24.09;37.87;101396.19;5065560;28;20124;-70
2022/06/06 09:19:35;;;;;;;4.95;1.90;;;;;;;25.00;39.06;101398.78;5034578;28;20098;-70
2022/06/06 09:22:37;;;;;;;5.78;2.40;;;;;;;23.23;46.04;101403.66;5032757;28;20048;-69
2022/06/06 09:25:47;;;;;;;5.10;2.22;;;;;;;21.77;50.59;101424.28;5066299;28;20087;-69
2022/06/06 09:28:37;;;;;;;4.47;2.55;;;;;;;21.26;54.35;101420.44;5031920;28;20036;-69
2022/06/06 09:31:09;;;;;;;4.88;2.92;;;;;;;22.17;52.38;101411.72;5066101;28;20045;-70
2022/06/06 09:33:46;;;;;;;5.70;2.30;;;;;;;20.83;54.37;101402.84;5034823;28;20104;-69
2022/06/06 09:36:32;;;;;;;7.20;2.40;;;;;;;21.88;54.15;101414.94;5033388;28;20053;-70
2022/06/06 09:39:32;;;;;;;5.93;2.10;;;;;;;20.24;58.46;101438.09;5033611;28;20104;-68
2022/06/06 09:42:34;;;;;;;8.35;2.20;;;;;;;19.64;66.03;101433.34;5032761;28;20393;-68
2022/06/06 09:45:24;;;;;;;3.60;2.17;;;;;;;19.48;63.21;101425.09;5033165;28;20026;-69
2022/06/06 09:48:37;;;;;;;2.08;1.80;;;;;;;19.85;62.79;101420.19;5033943;28;20040;-69
2022/06/06 09:51:14;;;;;;;5.40;3.00;;;;;;;20.33;61.98;101411.16;5033033;28;20474;-68
2022/06/06 10:00:20;;;;;;;6.10;4.53;;;;;;;23.66;52.70;101401.31;5033487;28;20041;-68
2022/06/06 10:03:08;;;;;;;6.60;4.50;;;;;;;24.26;51.97;101386.34;5065503;28;20040;-68
2022/06/06 10:05:46;;;;;;;8.98;3.50;;;;;;;22.79;54.49;101392.63;5032786;28;20037;-68
2022/06/06 10:08:53;;;;;;;8.15;3.70;;;;;;;23.82;51.95;101402.16;5033539;28;20462;-68
2022/06/06 10:11:37;;;;;;;5.30;3.35;;;;;;;22.79;54.25;101386.41;5031449;28;20041;-68
2022/06/06 10:14:25;;;;;;;4.13;3.33;;;;;;;23.09;52.55;101385.72;5033196;28;20025;-68
2022/06/06 10:17:15;;;;;;;5.85;3.92;;;;;;;22.72;54.43;101393.88;5033468;28;20025;-68
2022/06/06 10:20:23;;;;;;;10.63;4.50;;;;;;;23.27;56.45;101386.56;5064509;28;20489;-68
2022/06/06 10:23:15;;;;;;;4.88;3.72;;;;;;;23.44;54.97;101388.28;5031994;28;20448;-68
2022/06/06 10:25:40;;;;;;;7.68;4.68;;;;;;;25.06;50.52;101374.34;5032227;28;20025;-69
2022/06/06 10:28:25;;;;;;;7.93;3.58;;;;;;;24.02;52.71;101384.16;5033125;28;20117;-68
2022/06/06 10:31:11;;;;;;;5.00;2.70;;;;;;;24.79;48.61;101379.59;5065022;28;20479;-68
2022/06/06 10:34:14;;;;;;;4.50;2.50;;;;;;;22.63;52.55;101381.06;5032230;28;20036;-68
2022/06/06 10:37:37;;;;;;;5.18;2.70;;;;;;;24.02;50.32;101368.16;5064957;28;20041;-68
2022/06/06 10:40:25;;;;;;;5.45;2.90;;;;;;;23.41;51.35;101362.66;5029544;28;20068;-68
2022/06/06 10:43:18;;;;;;;7.43;2.67;;;;;;;22.33;54.89;101368.34;5013029;28;20116;-69
2022/06/06 10:45:43;;;;;;;4.88;2.70;;;;;;;22.45;55.37;101365.06;5026064;28;20417;-68
2022/06/06 10:48:30;;;;;;;8.82;3.58;;;;;;;22.14;58.41;101363.94;5012836;28;20030;-67
2022/06/06 10:51:39;;;;;;;7.00;4.00;;;;;;;22.51;57.54;101378.06;5057729;28;20528;-69
2022/06/06 10:54:32;;;;;;;9.45;3.55;;;;;;;22.35;57.05;101366.47;5012404;28;20421;-68
2022/06/06 10:57:06;;;;;;;6.20;3.38;;;;;;;21.78;56.31;101369.28;5055245;28;20022;-69
2022/06/06 10:59:58;;;;;;;4.65;3.90;;;;;;;23.20;54.64;101359.38;5032608;28;20026;-68
2022/06/06 11:02:45;;;;;;;4.20;3.25;;;;;;;22.67;54.14;101364.81;5032153;28;20019;-69
2022/06/06 11:05:44;;;;;;;6.88;4.95;;;;;;;22.96;52.56;101366.88;5032442;28;20025;-68
2022/06/06 11:08:15;;;;;;;4.95;3.22;;;;;;;24.09;49.99;101366.81;5031663;28;20432;-69
2022/06/06 11:11:18;;;;;;;4.38;3.08;;;;;;;22.23;51.76;101383.03;5032193;28;20045;-68
2022/06/06 11:13:43;;;;;;;6.65;2.75;;;;;;;;;;5031103;28;20167;-67
2022/06/06 11:16:24;;;;;;;8.50;3.30;;;;;;;21.48;58.78;101365.31;5031993;28;20108;-67
2022/06/06 11:19:17;;;;;;;5.25;3.15;;;;;;;21.78;59.44;101369.28;5032332;28;20044;-68
2022/06/06 11:22:08;;;;;;;6.63;2.92;;;;;;;21.30;58.70;101377.69;5030210;28;20040;-70
2022/06/06 11:24:40;;;;;;;5.82;2.85;;;;;;;21.51;59.93;101381.16;5031793;28;20025;-69
2022/06/06 11:27:25;;;;;;;6.88;2.75;;;;;;;22.19;58.70;101377.03;5032163;28;20025;-69
2022/06/06 11:30:20;;;;;;;4.68;1.88;;;;;;;21.52;60.22;101377.56;5030165;28;20484;-68
2022/06/06 11:33:09;;;;;;;7.05;1.95;;;;;;;22.00;58.26;101377.09;5029524;28;20040;-68
2022/06/06 11:35:36;;;;;;;4.65;2.30;;;;;;;21.77;59.55;101368.41;5030038;28;20029;-69
2022/06/06 11:38:14;;;;;;;6.25;2.20;;;;;;;22.33;58.62;101379.00;5030859;28;20059;-68
2022/06/06 11:41:00;;;;;;;6.57;3.47;;;;;;;22.09;59.37;101371.31;5031809;28;20021;-68
2022/06/06 11:43:46;;;;;;;9.70;2.40;;;;;;;21.77;59.81;101376.41;5030973;28;20041;-68
2022/06/06 11:46:30;;;;;;;4.88;2.55;;;;;;;22.18;58.39;101373.47;5030596;28;20409;-68
2022/06/06 11:49:17;;;;;;;4.63;1.88;;;;;;;21.98;57.78;101370.97;5030718;28;20041;-68
2022/06/06 11:52:07;;;;;;;6.32;3.28;;;;;;;22.12;57.65;101365.81;5030299;28;20087;-68
2022/06/06 11:54:54;;;;;;;9.15;3.08;;;;;;;22.56;57.53;101363.63;5031785;28;20143;-68
2022/06/06 11:57:34;;;;;;;5.05;2.90;;;;;;;22.49;56.16;101368.41;5031060;28;20139;-68
2022/06/06 12:00:07;;;;;;;8.25;2.97;;;;;;;21.95;58.62;101363.13;5030403;28;20060;-69
2022/06/06 12:02:51;;;;;;;4.82;3.45;;;;;;;22.82;56.94;101363.16;5034955;28;20025;-69
2022/06/06 12:05:41;;;;;;;4.78;3.45;;;;;;;22.44;58.02;101360.69;5034797;28;20036;-68
2022/06/06 12:08:18;;;;;;;7.80;4.25;;;;;;;23.24;54.41;101360.06;5035814;28;20028;-68
2022/06/06 12:10:49;;;;;;;6.35;3.50;;;;;;;22.17;58.31;101347.81;5033724;28;20060;-68
2022/06/06 12:13:25;;;;;;;6.25;3.42;;;;;;;22.66;57.55;101354.25;5035678;28;20029;-68
2022/06/06 12:16:25;;;;;;;10.73;4.00;;;;;;;21.99;59.55;101367.38;5035604;28;20028;-68
2022/06/06 12:19:12;;;;;;;7.47;3.80;;;;;;;22.09;61.95;101363.31;5033443;28;20037;-68
2022/06/06 12:22:01;;;;;;;5.20;3.45;;;;;;;21.15;64.65;101371.28;5035545;28;20596;-69
2022/06/06 12:24:52;;;;;;;6.28;2.53;;;;;;;21.58;66.25;101370.25;5033164;28;20053;-68
2022/06/06 12:27:35;;;;;;;2.72;1.85;;;;;;;20.29;73.69;101377.69;5035390;28;20109;-68
2022/06/06 12:30:40;;;;;;;5.03;2.63;;;;;;;20.96;71.58;101368.59;5035285;28;20045;-68
2022/06/06 12:33:31;;;;;;;6.18;3.83;;;;;;;20.34;70.64;101365.09;5032354;28;20056;-67
2022/06/06 12:36:07;;;;;;;2.63;2.10;;;;;;;20.48;68.79;101368.03;5034016;28;20017;-68
2022/06/06 12:38:58;;;;;;;4.55;2.20;;;;;;;20.62;72.27;101374.53;5033111;28;20420;-68